Time;durP1;ratioP1;P1;durP2;ratioP2;P2;SDS_P1;SDS_P2;PMS_P1;PMS_P2;Temp;Humidity;BMP_temperature;BMP_pressure;BME280_temperature;BME280_humidity;BME280_pressure;Samples;Min_cycle;Max_cycle;Signal;HPM_P1;HPM_P2
2024/02/12 00:00:23;;;;;;;0.65;0.47;;;;;;;;;;5034482;28;20029;-78
2024/02/12 00:02:49;;;;;;;0.40;0.40;;;;;;;;;;5040588;28;20025;-78
2024/02/12 00:05:15;;;;;;;0.80;0.40;;;;;;;;;;5039382;28;20452;-79
2024/02/12 00:07:42;;;;;;;0.45;0.45;;;;;;;;;;5039044;28;20045;-78
2024/02/12 00:10:11;;;;;;;1.65;0.40;;;;;;;;;;5038744;28;20032;-78
2024/02/12 00:12:43;;;;;;;0.30;0.30;;;;;;;;;;5039363;28;20022;-77
2024/02/12 00:15:12;;;;;;;0.60;0.35;;;;;;;;;;5037488;28;20067;-79
2024/02/12 00:17:41;;;;;;;0.90;0.57;;;;;;;;;;5039505;28;20030;-78
2024/02/12 00:20:11;;;;;;;1.65;0.73;;;;;;;;;;5040187;28;20037;-77
2024/02/12 00:22:41;;;;;;;1.88;0.70;;;;;;;;;;5040112;28;20065;-78
2024/02/12 00:25:07;;;;;;;0.55;0.50;;;;;;;;;;5042595;28;20022;-79
2024/02/12 00:27:37;;;;;;;1.63;0.80;;;;;;;;;;5038631;28;20034;-79
2024/02/12 00:30:04;;;;;;;0.57;0.57;;;;;;;;;;5046639;28;20045;-78
2024/02/12 00:32:30;;;;;;;1.17;0.55;;;;;;;;;;5054638;28;20050;-78
2024/02/12 00:34:57;;;;;;;0.85;0.57;;;;;;;;;;5049468;28;20040;-79
2024/02/12 00:37:26;;;;;;;0.93;0.75;;;;;;;;;;5041312;28;20048;-78
2024/02/12 00:39:58;;;;;;;0.50;0.40;;;;;;;;;;5041588;28;20037;-77
2024/02/12 00:42:24;;;;;;;0.50;0.30;;;;;;;;;;5045220;28;20048;-78
2024/02/12 00:44:51;;;;;;;0.40;0.40;;;;;;;;;;5044861;28;20437;-78
2024/02/12 00:47:18;;;;;;;0.45;0.40;;;;;;;;;;5043676;28;20384;-78
2024/02/12 00:49:44;;;;;;;0.28;0.28;;;;;;;;;;5043207;28;20064;-78
2024/02/12 00:52:11;;;;;;;0.63;0.40;;;;;;;;;;5042316;28;20025;-78
2024/02/12 00:54:40;;;;;;;0.22;0.22;;;;;;;;;;5041803;28;20025;-77
2024/02/12 00:57:09;;;;;;;1.17;0.40;;;;;;;;;;5040351;28;20044;-79
2024/02/12 00:59:40;;;;;;;0.32;0.20;;;;;;;;;;5035572;28;20061;-78
2024/02/12 01:02:09;;;;;;;0.30;0.30;;;;;;;;;;5040925;28;20076;-77
2024/02/12 01:04:35;;;;;;;0.85;0.43;;;;;;;;;;5037583;28;20025;-78
2024/02/12 01:07:03;;;;;;;0.47;0.32;;;;;;;;;;5036592;28;20473;-78
2024/02/12 01:09:29;;;;;;;0.55;0.22;;;;;;;;;;5037844;28;20091;-77
2024/02/12 01:11:55;;;;;;;0.60;0.50;;;;;;;;;;5044930;28;20032;-77
2024/02/12 01:14:23;;;;;;;0.45;0.30;;;;;;;;;;5046094;28;20025;-79
2024/02/12 01:16:49;;;;;;;0.28;0.28;;;;;;;;;;5039446;28;20032;-78
2024/02/12 01:19:15;;;;;;;1.05;0.55;;;;;;;;;;5043653;28;20033;-78
2024/02/12 01:21:42;;;;;;;0.85;0.20;;;;;;;;;;5042229;28;20447;-79
2024/02/12 01:24:08;;;;;;;0.43;0.43;;;;;;;;;;5060195;28;20010;-77
2024/02/12 01:26:37;;;;;;;0.65;0.30;;;;;;;;;;5064570;28;20016;-77
2024/02/12 01:29:04;;;;;;;0.52;0.52;;;;;;;;;;5060681;28;20110;-78
2024/02/12 01:31:30;;;;;;;0.40;0.40;;;;;;;;;;5052327;28;20031;-79
2024/02/12 01:33:56;;;;;;;0.40;0.40;;;;;;;;;;5047593;28;20081;-78
2024/02/12 01:36:22;;;;;;;0.28;0.20;;;;;;;;;;5053537;28;20017;-79
2024/02/12 01:38:48;;;;;;;0.82;0.40;;;;;;;;;;5047876;28;20017;-78
2024/02/12 01:41:16;;;;;;;0.55;0.40;;;;;;;;;;5047133;28;20025;-78
2024/02/12 01:43:42;;;;;;;0.30;0.30;;;;;;;;;;5051173;28;20560;-78
2024/02/12 01:46:09;;;;;;;0.98;0.40;;;;;;;;;;5052646;28;20022;-79
2024/02/12 01:48:36;;;;;;;0.68;0.50;;;;;;;;;;5058345;28;20016;-77
2024/02/12 01:51:09;;;;;;;0.40;0.30;;;;;;;;;;5068824;28;20036;-77
2024/02/12 01:53:35;;;;;;;;;;;;;;;;;;5054297;28;20080;-79
2024/02/12 01:56:02;;;;;;;0.30;0.30;;;;;;;;;;5052117;28;19930;-79
2024/02/12 01:58:30;;;;;;;0.50;0.40;;;;;;;;;;5052329;28;20052;-78
2024/02/12 02:00:57;;;;;;;0.82;0.32;;;;;;;;;;5050573;28;20021;-78
2024/02/12 02:03:24;;;;;;;0.40;0.28;;;;;;;;;;5053111;28;20106;-78
2024/02/12 02:05:52;;;;;;;0.10;0.10;;;;;;;;;;5049967;28;20100;-77
2024/02/12 02:08:19;;;;;;;0.22;0.22;;;;;;;;;;5047756;28;20025;-77
2024/02/12 02:10:48;;;;;;;1.50;0.30;;;;;;;;;;5032375;28;20435;-78
2024/02/12 02:13:15;;;;;;;0.20;0.20;;;;;;;;;;5045101;28;20025;-77
2024/02/12 02:15:42;;;;;;;0.82;0.50;;;;;;;;;;5048322;28;20018;-78
2024/02/12 02:18:08;;;;;;;0.20;0.20;;;;;;;;;;5049712;28;20021;-79
2024/02/12 02:20:36;;;;;;;0.30;0.30;;;;;;;;;;5046190;28;20021;-78
2024/02/12 02:23:04;;;;;;;0.20;0.20;;;;;;;;;;5052896;28;20059;-77
2024/02/12 02:25:30;;;;;;;0.50;0.35;;;;;;;;;;5047741;28;20028;-79
2024/02/12 02:27:57;;;;;;;0.60;0.60;;;;;;;;;;5050875;28;20486;-78
2024/02/12 02:30:23;;;;;;;0.63;0.40;;;;;;;;;;5050239;28;20021;-77
2024/02/12 02:32:50;;;;;;;1.30;0.50;;;;;;;;;;5052708;28;20128;-80
2024/02/12 02:35:16;;;;;;;0.30;0.25;;;;;;;;;;5046215;28;20021;-79
2024/02/12 02:37:46;;;;;;;0.47;0.30;;;;;;;;;;5048095;28;20021;-78
2024/02/12 02:40:12;;;;;;;0.20;0.20;;;;;;;;;;5043341;28;20021;-78
2024/02/12 02:42:38;;;;;;;0.30;0.30;;;;;;;;;;5048189;28;20029;-78
2024/02/12 02:45:06;;;;;;;0.22;0.20;;;;;;;;;;5052686;28;20051;-80
2024/02/12 02:47:32;;;;;;;0.60;0.30;;;;;;;;;;5052962;28;20013;-79
2024/02/12 02:49:58;;;;;;;0.77;0.45;;;;;;;;;;5055297;28;20025;-79
2024/02/12 02:52:25;;;;;;;0.50;0.20;;;;;;;;;;5055562;28;20029;-78
2024/02/12 02:54:52;;;;;;;0.35;0.30;;;;;;;;;;5063205;28;20037;-77
2024/02/12 02:57:18;;;;;;;0.95;0.30;;;;;;;;;;5058813;28;20033;-78
2024/02/12 02:59:44;;;;;;;1.08;0.20;;;;;;;;;;5063048;28;20026;-78
2024/02/12 03:02:12;;;;;;;0.40;0.40;;;;;;;;;;5058321;28;20018;-78
2024/02/12 03:04:40;;;;;;;0.45;0.45;;;;;;;;;;5051132;28;20017;-77
2024/02/12 03:07:07;;;;;;;0.82;0.47;;;;;;;;;;5049591;28;20013;-78
2024/02/12 03:09:36;;;;;;;0.50;0.50;;;;;;;;;;5049901;28;20027;-79
2024/02/12 03:12:02;;;;;;;0.60;0.60;;;;;;;;;;5051496;28;20021;-79
2024/02/12 03:14:28;;;;;;;0.40;0.30;;;;;;;;;;5052047;28;20123;-79
2024/02/12 03:16:56;;;;;;;0.30;0.30;;;;;;;;;;5050801;28;20028;-79
2024/02/12 03:19:22;;;;;;;0.73;0.43;;;;;;;;;;5047826;28;20021;-78
2024/02/12 03:21:49;;;;;;;0.22;0.22;;;;;;;;;;5050056;28;20099;-78
2024/02/12 03:24:19;;;;;;;0.65;0.45;;;;;;;;;;5053693;28;20014;-78
2024/02/12 03:26:46;;;;;;;1.55;0.50;;;;;;;;;;5059316;28;20064;-79
2024/02/12 03:29:12;;;;;;;0.57;0.30;;;;;;;;;;5043787;28;20018;-79
2024/02/12 03:31:42;;;;;;;0.40;0.30;;;;;;;;;;5042431;28;20033;-78
2024/02/12 03:34:08;;;;;;;0.47;0.40;;;;;;;;;;5052206;28;20053;-78
2024/02/12 03:36:34;;;;;;;0.20;0.10;;;;;;;;;;5049186;28;20014;-78
2024/02/12 03:39:00;;;;;;;0.40;0.40;;;;;;;;;;5047325;28;20017;-77
2024/02/12 03:41:26;;;;;;;0.28;0.28;;;;;;;;;;5050169;28;20025;-78
2024/02/12 03:43:52;;;;;;;0.43;0.30;;;;;;;;;;5046292;28;20022;-78
2024/02/12 03:46:28;;;;;;;0.35;0.30;;;;;;;;;;5042233;28;20082;-78
2024/02/12 03:59:53;;;;;;;2.97;0.35;;;;;;;;;;5032464;28;20036;-77
2024/02/12 04:02:22;;;;;;;1.55;0.10;;;;;;;;;;5035475;28;20116;-76
2024/02/12 04:04:51;;;;;;;0.85;0.30;;;;;;;;;;5033698;28;20495;-77
2024/02/12 04:07:21;;;;;;;1.65;0.63;;;;;;;;;;5031996;28;20022;-77
2024/02/12 04:09:48;;;;;;;0.20;0.13;;;;;;;;;;5039906;28;20014;-77
2024/02/12 04:12:14;;;;;;;0.73;0.50;;;;;;;;;;5043462;28;20026;-77
2024/02/12 04:14:42;;;;;;;0.10;0.10;;;;;;;;;;5040760;28;20032;-77
2024/02/12 04:17:09;;;;;;;0.25;0.25;;;;;;;;;;5038111;28;20112;-77
2024/02/12 04:19:36;;;;;;;0.30;0.30;;;;;;;;;;5039061;28;20034;-78
2024/02/12 04:22:04;;;;;;;0.40;0.20;;;;;;;;;;5063405;28;20052;-77
2024/02/12 04:24:35;;;;;;;0.30;0.20;;;;;;;;;;5030176;28;20029;-77
2024/02/12 04:27:03;;;;;;;0.63;0.30;;;;;;;;;;5037121;28;20028;-77
2024/02/12 04:29:30;;;;;;;0.10;0.10;;;;;;;;;;5038420;28;20124;-78
2024/02/12 04:31:56;;;;;;;0.20;0.20;;;;;;;;;;5042070;28;20044;-78
2024/02/12 04:34:23;;;;;;;0.47;0.47;;;;;;;;;;5031130;28;20045;-77
2024/02/12 04:36:55;;;;;;;0.20;0.20;;;;;;;;;;5034967;28;20017;-77
2024/02/12 04:39:21;;;;;;;0.55;0.20;;;;;;;;;;5038372;28;20039;-78
2024/02/12 04:41:51;;;;;;;0.22;0.20;;;;;;;;;;5039662;28;20032;-78
2024/02/12 04:44:17;;;;;;;0.30;0.20;;;;;;;;;;5040197;28;20499;-78
2024/02/12 04:46:43;;;;;;;0.22;0.10;;;;;;;;;;5033724;28;20079;-77
2024/02/12 04:49:10;;;;;;;0.40;0.20;;;;;;;;;;5037183;28;20392;-78
2024/02/12 04:51:40;;;;;;;0.30;0.30;;;;;;;;;;5045194;28;20030;-77
2024/02/12 04:54:07;;;;;;;0.22;0.22;;;;;;;;;;5033187;28;20050;-76
2024/02/12 04:56:33;;;;;;;0.15;0.10;;;;;;;;;;5032718;28;20025;-77
2024/02/12 04:58:59;;;;;;;0.40;0.30;;;;;;;;;;5036736;28;20022;-78
2024/02/12 05:01:29;;;;;;;0.30;0.30;;;;;;;;;;5032178;28;20068;-77
2024/02/12 05:03:59;;;;;;;0.35;0.32;;;;;;;;;;5034223;28;20029;-76
2024/02/12 05:06:25;;;;;;;0.30;0.30;;;;;;;;;;5032988;28;20077;-77
2024/02/12 05:08:51;;;;;;;0.80;0.30;;;;;;;;;;5028726;28;20038;-77
2024/02/12 05:11:19;;;;;;;0.28;0.28;;;;;;;;;;5028348;28;20423;-76
2024/02/12 05:13:46;;;;;;;0.35;0.20;;;;;;;;;;5031831;28;20026;-77
2024/02/12 05:16:13;;;;;;;0.25;0.25;;;;;;;;;;5030139;28;20033;-77
2024/02/12 05:24:10;;;;;;;0.20;0.20;;;;;;;;;;5042863;28;20083;-77
2024/02/12 05:26:38;;;;;;;1.35;0.30;;;;;;;;;;5038281;28;20097;-75
2024/02/12 05:29:06;;;;;;;0.30;0.28;;;;;;;;;;5053118;28;20078;-75
2024/02/12 05:31:33;;;;;;;1.00;0.35;;;;;;;;;;5049033;28;20116;-75
2024/02/12 05:33:59;;;;;;;0.55;0.52;;;;;;;;;;5035506;28;20018;-77
2024/02/12 05:36:25;;;;;;;0.35;0.35;;;;;;;;;;5034173;28;20040;-76
2024/02/12 05:38:51;;;;;;;0.82;0.25;;;;;;;;;;5036233;28;20064;-77
2024/02/12 05:41:17;;;;;;;0.40;0.30;;;;;;;;;;5029907;28;20408;-76
2024/02/12 05:43:43;;;;;;;0.57;0.30;;;;;;;;;;5018446;28;20022;-77
2024/02/12 05:46:09;;;;;;;0.75;0.20;;;;;;;;;;5029459;28;20135;-76
2024/02/12 05:48:38;;;;;;;0.35;0.25;;;;;;;;;;5031821;28;20067;-76
2024/02/12 05:51:05;;;;;;;1.15;0.22;;;;;;;;;;5047653;28;20032;-77
2024/02/12 05:53:31;;;;;;;0.30;0.22;;;;;;;;;;5053601;28;20031;-76
2024/02/12 05:55:57;;;;;;;0.35;0.30;;;;;;;;;;5032993;28;20060;-77
2024/02/12 05:58:26;;;;;;;0.40;0.20;;;;;;;;;;5033196;28;20392;-76
2024/02/12 06:00:53;;;;;;;0.38;0.38;;;;;;;;;;5025708;28;20031;-76
2024/02/12 06:03:20;;;;;;;0.50;0.30;;;;;;;;;;5032385;28;20468;-77
2024/02/12 06:05:47;;;;;;;0.55;0.30;;;;;;;;;;5028824;28;20087;-75
2024/02/12 06:08:15;;;;;;;0.30;0.30;;;;;;;;;;5027920;28;20053;-75
2024/02/12 06:10:41;;;;;;;2.50;0.40;;;;;;;;;;5029600;28;20076;-76
2024/02/12 06:13:07;;;;;;;0.55;0.40;;;;;;;;;;5027136;28;20038;-76
2024/02/12 06:15:33;;;;;;;0.50;0.32;;;;;;;;;;5026122;28;20026;-75
2024/02/12 06:17:59;;;;;;;0.47;0.32;;;;;;;;;;5025189;28;20029;-75
2024/02/12 06:20:26;;;;;;;0.75;0.30;;;;;;;;;;5026709;28;20034;-76
2024/02/12 06:22:52;;;;;;;0.32;0.32;;;;;;;;;;5045469;28;20026;-76
2024/02/12 06:25:18;;;;;;;0.30;0.30;;;;;;;;;;5027349;28;20088;-76
2024/02/12 06:27:47;;;;;;;0.82;0.38;;;;;;;;;;5029354;28;20025;-76
2024/02/12 06:30:14;;;;;;;0.22;0.22;;;;;;;;;;5035444;28;20018;-76
2024/02/12 06:32:41;;;;;;;0.77;0.40;;;;;;;;;;5028410;28;20052;-75
2024/02/12 06:35:08;;;;;;;0.22;0.22;;;;;;;;;;5027404;28;20034;-75
2024/02/12 06:37:34;;;;;;;0.88;0.40;;;;;;;;;;5026417;28;20432;-76
2024/02/12 06:40:00;;;;;;;0.47;0.38;;;;;;;;;;5027888;28;20034;-75
2024/02/12 06:42:26;;;;;;;0.52;0.20;;;;;;;;;;5030197;28;20480;-75
2024/02/12 06:44:53;;;;;;;0.95;0.50;;;;;;;;;;5032255;28;20031;-75
2024/02/12 06:47:20;;;;;;;0.20;0.20;;;;;;;;;;5032570;28;20133;-75
2024/02/12 06:49:46;;;;;;;1.27;0.40;;;;;;;;;;5045124;28;20573;-76
2024/02/12 06:52:12;;;;;;;0.52;0.20;;;;;;;;;;5042985;28;20182;-76
2024/02/12 06:54:38;;;;;;;0.43;0.40;;;;;;;;;;5035459;28;20105;-75
2024/02/12 06:57:04;;;;;;;0.30;0.30;;;;;;;;;;5034403;28;20481;-76
2024/02/12 06:59:30;;;;;;;1.15;0.30;;;;;;;;;;5050715;28;20048;-76
2024/02/12 07:01:57;;;;;;;0.20;0.20;;;;;;;;;;5056874;28;20017;-75
2024/02/12 07:04:23;;;;;;;0.68;0.30;;;;;;;;;;5057970;28;20072;-76
2024/02/12 07:06:50;;;;;;;0.90;0.40;;;;;;;;;;5052188;28;20025;-76
2024/02/12 07:09:16;;;;;;;0.57;0.40;;;;;;;;;;5050866;28;20033;-76
2024/02/12 07:11:43;;;;;;;0.63;0.50;;;;;;;;;;5053423;28;20024;-76
2024/02/12 07:14:09;;;;;;;2.55;0.50;;;;;;;;;;5056536;28;20017;-75
2024/02/12 07:16:35;;;;;;;0.85;0.40;;;;;;;;;;5055085;28;20081;-75
2024/02/12 07:19:01;;;;;;;0.73;0.30;;;;;;;;;;5054508;28;20117;-76
2024/02/12 07:21:28;;;;;;;0.95;0.40;;;;;;;;;;5069132;28;20035;-76
2024/02/12 07:23:54;;;;;;;0.55;0.30;;;;;;;;;;5048217;28;20026;-76
2024/02/12 07:26:21;;;;;;;0.73;0.40;;;;;;;;;;5046142;28;20016;-75
2024/02/12 07:28:51;;;;;;;0.50;0.50;;;;;;;;;;5058701;28;20443;-76
2024/02/12 07:31:17;;;;;;;0.32;0.20;;;;;;;;;;5053078;28;20088;-76
2024/02/12 07:33:44;;;;;;;0.20;0.20;;;;;;;;;;5054625;28;20040;-77
2024/02/12 07:36:10;;;;;;;0.40;0.30;;;;;;;;;;5056155;28;20067;-77
2024/02/12 07:38:40;;;;;;;0.35;0.35;;;;;;;;;;5064219;28;20438;-76
2024/02/12 07:41:06;;;;;;;0.80;0.30;;;;;;;;;;5051130;28;20026;-76
2024/02/12 07:43:33;;;;;;;0.35;0.35;;;;;;;;;;5050278;28;20068;-76
2024/02/12 07:45:59;;;;;;;0.50;0.43;;;;;;;;;;5031709;28;20148;-76
2024/02/12 07:48:26;;;;;;;0.60;0.40;;;;;;;;;;5029906;28;20030;-76
2024/02/12 07:50:55;;;;;;;0.43;0.43;;;;;;;;;;5041913;28;20018;-76
2024/02/12 07:53:25;;;;;;;1.05;0.40;;;;;;;;;;5042459;28;20052;-76
2024/02/12 07:55:54;;;;;;;0.88;0.30;;;;;;;;;;5031062;28;20048;-77
2024/02/12 07:58:20;;;;;;;1.00;0.50;;;;;;;;;;5034087;28;20388;-76
2024/02/12 08:00:49;;;;;;;0.70;0.50;;;;;;;;;;5032029;28;20014;-76
2024/02/12 08:03:18;;;;;;;1.17;0.40;;;;;;;;;;5032008;28;20025;-76
2024/02/12 08:05:45;;;;;;;0.73;0.45;;;;;;;;;;5031388;28;20116;-77
2024/02/12 08:08:11;;;;;;;0.43;0.40;;;;;;;;;;5032409;28;20111;-77
2024/02/12 08:10:38;;;;;;;1.45;0.50;;;;;;;;;;5026294;28;20614;-76
2024/02/12 08:13:04;;;;;;;0.55;0.30;;;;;;;;;;5022531;28;20407;-76
2024/02/12 08:15:30;;;;;;;0.40;0.40;;;;;;;;;;5031186;28;20025;-76
2024/02/12 08:17:57;;;;;;;1.00;0.40;;;;;;;;;;5020132;28;20033;-78
2024/02/12 08:20:25;;;;;;;1.00;0.50;;;;;;;;;;5035737;28;20020;-77
2024/02/12 08:22:54;;;;;;;0.70;0.50;;;;;;;;;;5042970;28;20133;-76
2024/02/12 08:25:20;;;;;;;0.75;0.52;;;;;;;;;;5029205;28;20041;-76
2024/02/12 08:27:46;;;;;;;0.77;0.50;;;;;;;;;;5029112;28;20029;-76
2024/02/12 08:30:14;;;;;;;1.60;0.70;;;;;;;;;;5032282;28;20017;-77
2024/02/12 08:32:40;;;;;;;1.17;0.40;;;;;;;;;;5032663;28;20606;-77
2024/02/12 08:35:07;;;;;;;1.58;0.65;;;;;;;;;;5033143;28;20033;-76
2024/02/12 08:37:34;;;;;;;0.75;0.45;;;;;;;;;;5033322;28;20021;-76
2024/02/12 08:40:00;;;;;;;1.20;0.50;;;;;;;;;;5031521;28;20412;-77
2024/02/12 08:42:26;;;;;;;0.70;0.60;;;;;;;;;;5030498;28;20052;-76
2024/02/12 08:44:53;;;;;;;0.40;0.40;;;;;;;;;;5031867;28;20018;-76
2024/02/12 08:47:20;;;;;;;0.57;0.52;;;;;;;;;;5035446;28;20025;-77
2024/02/12 08:49:46;;;;;;;0.68;0.50;;;;;;;;;;5037435;28;20034;-76
2024/02/12 08:52:12;;;;;;;1.30;0.50;;;;;;;;;;5044611;28;20415;-76
2024/02/12 08:54:38;;;;;;;1.67;0.57;;;;;;;;;;5035813;28;20025;-76
2024/02/12 08:57:06;;;;;;;4.85;0.75;;;;;;;;;;5035310;28;20034;-76
2024/02/12 08:59:34;;;;;;;0.65;0.65;;;;;;;;;;5032454;28;20078;-77
2024/02/12 09:02:01;;;;;;;2.00;0.70;;;;;;;;;;5027263;28;20087;-76
2024/02/12 09:04:27;;;;;;;1.92;0.85;;;;;;;;;;5035486;28;20014;-76
2024/02/12 09:06:53;;;;;;;1.42;1.17;;;;;;;;;;5027503;28;20033;-77
2024/02/12 09:09:20;;;;;;;1.83;0.75;;;;;;;;;;5028637;28;20029;-76
2024/02/12 09:11:46;;;;;;;0.82;0.70;;;;;;;;;;5034933;28;20424;-76
2024/02/12 09:14:12;;;;;;;0.93;0.70;;;;;;;;;;5033836;28;20037;-75
2024/02/12 09:16:39;;;;;;;1.20;0.80;;;;;;;;;;5031849;28;20049;-75
2024/02/12 09:19:05;;;;;;;1.00;0.60;;;;;;;;;;5035516;28;20436;-76
2024/02/12 09:21:32;;;;;;;0.95;0.65;;;;;;;;;;5052118;28;20033;-75
2024/02/12 09:23:59;;;;;;;0.40;0.40;;;;;;;;;;5034200;28;20041;-77
2024/02/12 09:26:25;;;;;;;1.63;0.95;;;;;;;;;;5034405;28;20483;-76
2024/02/12 09:28:52;;;;;;;0.63;0.63;;;;;;;;;;5036463;28;20040;-77
2024/02/12 09:31:18;;;;;;;3.00;1.17;;;;;;;;;;5040370;28;20005;-76
2024/02/12 09:33:46;;;;;;;1.17;0.73;;;;;;;;;;5058991;28;20100;-75
2024/02/12 09:36:13;;;;;;;1.52;0.88;;;;;;;;;;5044344;28;20043;-77
2024/02/12 09:38:39;;;;;;;1.55;1.35;;;;;;;;;;5032622;28;20026;-76
2024/02/12 09:41:05;;;;;;;1.77;0.70;;;;;;;;;;5035496;28;20033;-77
2024/02/12 09:43:33;;;;;;;0.80;0.70;;;;;;;;;;5023937;28;20014;-76
2024/02/12 09:46:05;;;;;;;0.70;0.70;;;;;;;;;;5042866;28;20025;-76
2024/02/12 09:48:31;;;;;;;1.55;0.75;;;;;;;;;;5051821;28;20037;-75
2024/02/12 09:50:58;;;;;;;0.85;0.60;;;;;;;;;;5065077;28;20048;-75
2024/02/12 09:53:25;;;;;;;1.80;0.55;;;;;;;;;;5056790;28;20021;-76
2024/02/12 09:55:52;;;;;;;1.55;0.60;;;;;;;;;;5055934;28;20040;-75
2024/02/12 09:58:18;;;;;;;0.70;0.50;;;;;;;;;;5045219;28;20060;-74
2024/02/12 10:00:45;;;;;;;0.98;0.57;;;;;;;;;;5055788;28;20044;-75
2024/02/12 10:03:11;;;;;;;0.98;0.57;;;;;;;;;;5050081;28;20037;-77
2024/02/12 10:05:40;;;;;;;1.42;0.45;;;;;;;;;;5035037;28;20025;-76
2024/02/12 10:08:17;;;;;;;4.07;1.15;;;;;;;;;;5029761;28;20072;-76
2024/02/12 10:10:44;;;;;;;0.65;0.60;;;;;;;;;;5038426;28;20377;-77
2024/02/12 10:13:10;;;;;;;0.90;0.77;;;;;;;;;;5040094;28;20186;-76
2024/02/12 10:15:39;;;;;;;1.50;0.70;;;;;;;;;;5038391;28;20047;-77
2024/02/12 10:18:05;;;;;;;0.75;0.40;;;;;;;;;;5031918;28;20030;-76
2024/02/12 10:20:32;;;;;;;1.20;0.50;;;;;;;;;;5032909;28;20077;-75
2024/02/12 10:22:58;;;;;;;0.43;0.43;;;;;;;;;;5036047;28;20026;-76
2024/02/12 10:25:25;;;;;;;3.40;0.60;;;;;;;;;;5032114;28;20086;-76
2024/02/12 10:27:51;;;;;;;1.80;0.60;;;;;;;;;;5034027;28;20034;-75
2024/02/12 10:30:17;;;;;;;2.30;0.93;;;;;;;;;;5028103;28;20053;-75
2024/02/12 10:32:49;;;;;;;1.48;0.40;;;;;;;;;;5033448;28;20027;-76
2024/02/12 10:35:15;;;;;;;0.63;0.40;;;;;;;;;;5034359;28;20029;-76
2024/02/12 10:37:44;;;;;;;1.85;0.55;;;;;;;;;;5044503;28;20391;-76
2024/02/12 10:40:14;;;;;;;0.98;0.50;;;;;;;;;;5036805;28;20032;-77
2024/02/12 10:42:45;;;;;;;1.27;0.40;;;;;;;;;;5032185;28;20049;-75
2024/02/12 10:45:11;;;;;;;0.50;0.50;;;;;;;;;;5035226;28;20052;-76
2024/02/12 10:47:38;;;;;;;0.98;0.57;;;;;;;;;;5028123;28;20026;-75
2024/02/12 10:50:07;;;;;;;0.65;0.40;;;;;;;;;;5054525;28;20065;-76
2024/02/12 10:52:36;;;;;;;0.95;0.60;;;;;;;;;;5074453;28;20077;-75
2024/02/12 10:55:02;;;;;;;0.70;0.70;;;;;;;;;;5054274;28;20045;-75
2024/02/12 10:57:29;;;;;;;1.63;0.70;;;;;;;;;;5050540;28;20021;-76
2024/02/12 11:00:01;;;;;;;0.95;0.88;;;;;;;;;;5048140;28;20052;-75
2024/02/12 11:02:27;;;;;;;;;;;;;;;;;;5045563;28;20053;-77
2024/02/12 11:05:01;;;;;;;0.80;0.80;;;;;;;;;;5036607;28;19940;-76
2024/02/12 11:07:29;;;;;;;1.17;0.88;;;;;;;;;;5033667;28;20366;-76
2024/02/12 11:10:03;;;;;;;1.48;0.68;;;;;;;;;;5027401;28;20028;-76
2024/02/12 11:12:33;;;;;;;2.22;0.98;;;;;;;;;;5029958;28;20025;-76
2024/02/12 11:15:01;;;;;;;0.98;0.70;;;;;;;;;;5033717;28;20030;-77
2024/02/12 11:17:28;;;;;;;1.65;1.25;;;;;;;;;;5037077;28;20029;-77
2024/02/12 11:19:55;;;;;;;1.20;0.80;;;;;;;;;;5041219;28;20075;-77
2024/02/12 11:22:28;;;;;;;2.90;1.05;;;;;;;;;;5038375;28;20026;-77
2024/02/12 11:24:59;;;;;;;1.25;0.90;;;;;;;;;;5021268;28;20033;-77
2024/02/12 11:27:27;;;;;;;2.05;1.25;;;;;;;;;;5031043;28;20388;-77
2024/02/12 11:29:53;;;;;;;2.13;0.85;;;;;;;;;;5029697;28;20116;-77
2024/02/12 11:32:23;;;;;;;0.82;0.73;;;;;;;;;;5031702;28;20034;-76
2024/02/12 11:34:49;;;;;;;2.03;0.90;;;;;;;;;;5032554;28;20097;-76
2024/02/12 11:37:18;;;;;;;1.48;1.20;;;;;;;;;;5042198;28;20065;-76
2024/02/12 11:39:44;;;;;;;1.20;0.80;;;;;;;;;;5025527;28;20037;-76
2024/02/12 11:42:11;;;;;;;1.77;1.00;;;;;;;;;;5034899;28;20147;-76
2024/02/12 11:44:38;;;;;;;0.75;0.70;;;;;;;;;;5027887;28;20025;-76
2024/02/12 11:47:04;;;;;;;0.65;0.50;;;;;;;;;;5036389;28;20036;-77
2024/02/12 11:49:30;;;;;;;2.00;0.90;;;;;;;;;;5033377;28;20026;-76
2024/02/12 11:51:57;;;;;;;0.60;0.60;;;;;;;;;;5031627;28;20079;-77
2024/02/12 11:54:24;;;;;;;3.05;0.90;;;;;;;;;;5036171;28;20032;-77
2024/02/12 11:56:53;;;;;;;2.80;1.02;;;;;;;;;;5031305;28;20515;-77
2024/02/12 11:59:23;;;;;;;1.27;0.80;;;;;;;;;;5035867;28;20032;-77
2024/02/12 12:01:49;;;;;;;1.25;0.70;;;;;;;;;;5035283;28;20026;-76
2024/02/12 12:04:17;;;;;;;2.28;1.10;;;;;;;;;;5029868;28;20010;-76
2024/02/12 12:06:43;;;;;;;1.05;0.82;;;;;;;;;;5032905;28;20024;-76
2024/02/12 12:09:11;;;;;;;0.95;0.82;;;;;;;;;;5029096;28;20446;-77
2024/02/12 12:11:40;;;;;;;1.60;0.90;;;;;;;;;;5035420;28;20052;-79
2024/02/12 12:14:06;;;;;;;1.50;1.10;;;;;;;;;;5027908;28;20037;-77
2024/02/12 12:16:35;;;;;;;0.95;0.80;;;;;;;;;;5026919;28;20071;-77
2024/02/12 12:19:09;;;;;;;2.05;0.95;;;;;;;;;;5036056;28;20382;-76
2024/02/12 12:21:36;;;;;;;1.13;0.85;;;;;;;;;;5044234;28;20045;-77
2024/02/12 12:24:02;;;;;;;1.15;0.95;;;;;;;;;;5044496;28;20518;-77
2024/02/12 12:26:29;;;;;;;1.92;0.90;;;;;;;;;;5031915;28;20024;-78
2024/02/12 12:28:55;;;;;;;0.90;0.75;;;;;;;;;;5036452;28;20026;-77
2024/02/12 12:31:21;;;;;;;1.00;0.60;;;;;;;;;;5027989;28;20040;-77
2024/02/12 12:33:48;;;;;;;0.68;0.60;;;;;;;;;;5020193;28;20084;-77
2024/02/12 12:36:14;;;;;;;1.02;0.70;;;;;;;;;;5034382;28;20021;-77
2024/02/12 12:38:40;;;;;;;2.17;0.85;;;;;;;;;;5033463;28;20420;-77
2024/02/12 12:41:08;;;;;;;0.40;0.40;;;;;;;;;;5032577;28;20029;-77
2024/02/12 12:43:37;;;;;;;1.90;0.90;;;;;;;;;;5038110;28;20026;-77
2024/02/12 12:46:07;;;;;;;1.50;0.80;;;;;;;;;;5037604;28;20026;-77
2024/02/12 12:48:33;;;;;;;0.70;0.60;;;;;;;;;;5034974;28;20034;-77
2024/02/12 12:50:59;;;;;;;4.13;1.00;;;;;;;;;;5044876;28;20024;-77
2024/02/12 12:53:25;;;;;;;2.47;1.05;;;;;;;;;;5051517;28;20185;-77
2024/02/12 12:55:51;;;;;;;0.60;0.60;;;;;;;;;;5035438;28;20429;-78
2024/02/12 12:58:20;;;;;;;1.08;0.73;;;;;;;;;;5031014;28;20017;-76
2024/02/12 13:00:46;;;;;;;2.25;0.70;;;;;;;;;;5038098;28;20033;-78
2024/02/12 13:03:12;;;;;;;0.60;0.55;;;;;;;;;;5040643;28;20030;-78
2024/02/12 13:05:42;;;;;;;1.52;0.80;;;;;;;;;;5034777;28;20041;-78
2024/02/12 13:08:12;;;;;;;0.60;0.60;;;;;;;;;;5030862;28;20029;-78
2024/02/12 13:10:41;;;;;;;1.75;0.88;;;;;;;;;;5038286;28;20097;-78
2024/02/12 13:13:11;;;;;;;1.25;0.60;;;;;;;;;;5038830;28;20018;-77
2024/02/12 13:15:37;;;;;;;1.70;1.00;;;;;;;;;;5030918;28;20017;-78
2024/02/12 13:18:06;;;;;;;2.95;0.85;;;;;;;;;;5032009;28;20127;-77
2024/02/12 13:20:33;;;;;;;1.88;0.63;;;;;;;;;;5034529;28;20017;-77
2024/02/12 13:23:01;;;;;;;1.25;0.70;;;;;;;;;;5049385;28;20037;-77
2024/02/12 13:25:29;;;;;;;0.90;0.60;;;;;;;;;;5034071;28;20013;-77
2024/02/12 13:27:59;;;;;;;0.60;0.60;;;;;;;;;;5035138;28;20025;-77
2024/02/12 13:30:25;;;;;;;1.25;0.70;;;;;;;;;;5045052;28;20410;-77
2024/02/12 13:32:51;;;;;;;1.35;0.57;;;;;;;;;;5036935;28;20112;-77
2024/02/12 13:35:18;;;;;;;0.93;0.85;;;;;;;;;;5036950;28;20033;-76
2024/02/12 13:37:44;;;;;;;0.80;0.60;;;;;;;;;;5045913;28;20025;-76
2024/02/12 13:40:17;;;;;;;2.30;0.80;;;;;;;;;;5038671;28;20481;-77
2024/02/12 13:42:44;;;;;;;0.77;0.70;;;;;;;;;;5042057;28;20028;-78
2024/02/12 13:45:12;;;;;;;1.85;0.73;;;;;;;;;;5046294;28;20085;-77
2024/02/12 13:47:39;;;;;;;0.65;0.60;;;;;;;;;;5039598;28;20104;-77
2024/02/12 13:50:10;;;;;;;0.90;0.50;;;;;;;;;;5041036;28;20055;-77
2024/02/12 13:52:37;;;;;;;0.85;0.70;;;;;;;;;;5033960;28;20545;-77
2024/02/12 13:55:10;;;;;;;2.67;0.90;;;;;;;;;;5036443;28;20503;-78
2024/02/12 13:57:36;;;;;;;1.38;0.80;;;;;;;;;;5053283;28;20061;-76
2024/02/12 14:00:02;;;;;;;2.67;1.17;;;;;;;;;;5028312;28;20396;-76
2024/02/12 14:02:28;;;;;;;2.10;0.60;;;;;;;;;;5035375;28;20495;-77
2024/02/12 14:04:55;;;;;;;1.23;0.70;;;;;;;;;;5034895;28;20022;-77
2024/02/12 14:07:21;;;;;;;1.85;0.70;;;;;;;;;;5029638;28;20026;-77
2024/02/12 14:09:48;;;;;;;2.63;0.75;;;;;;;;;;5035449;28;20079;-77
2024/02/12 14:12:14;;;;;;;1.42;0.75;;;;;;;;;;5036902;28;20473;-77
2024/02/12 14:14:40;;;;;;;3.22;0.93;;;;;;;;;;5036311;28;20384;-77
2024/02/12 14:17:06;;;;;;;0.40;0.40;;;;;;;;;;5035549;28;20037;-75
2024/02/12 14:19:34;;;;;;;0.70;0.70;;;;;;;;;;5037605;28;20029;-78
2024/02/12 14:22:00;;;;;;;1.10;0.70;;;;;;;;;;5036993;28;20117;-76
2024/02/12 14:24:26;;;;;;;1.30;1.00;;;;;;;;;;5024253;28;20033;-78
2024/02/12 14:26:52;;;;;;;0.93;0.82;;;;;;;;;;5031936;28;20534;-77
2024/02/12 14:29:20;;;;;;;0.73;0.60;;;;;;;;;;5053269;28;20025;-76
2024/02/12 14:31:46;;;;;;;0.70;0.43;;;;;;;;;;5042215;28;20044;-76
2024/02/12 14:34:12;;;;;;;0.57;0.57;;;;;;;;;;5040861;28;20035;-77
2024/02/12 14:36:38;;;;;;;1.42;0.82;;;;;;;;;;5036183;28;20053;-77
2024/02/12 14:39:05;;;;;;;1.42;0.80;;;;;;;;;;5039155;28;20029;-77
2024/02/12 14:41:31;;;;;;;1.83;0.82;;;;;;;;;;5037465;28;20095;-77
2024/02/12 14:43:57;;;;;;;1.00;0.63;;;;;;;;;;5037429;28;20079;-77
2024/02/12 14:46:25;;;;;;;1.13;0.82;;;;;;;;;;5036926;28;20143;-76
2024/02/12 14:48:51;;;;;;;0.70;0.68;;;;;;;;;;5039618;28;20036;-77
2024/02/12 14:51:19;;;;;;;0.98;0.65;;;;;;;;;;5047398;28;20555;-77
2024/02/12 14:53:45;;;;;;;1.63;0.85;;;;;;;;;;5042025;28;20381;-77
2024/02/12 14:56:12;;;;;;;1.35;0.90;;;;;;;;;;5032320;28;20033;-76
2024/02/12 14:58:39;;;;;;;2.78;0.90;;;;;;;;;;5029249;28;20032;-77